Tracy, Iowa
Current Conditions -  °F | °C
As of 11:35 AM on Saturday 20 Dec 2014 (Local Time) from KPEA Reporting Station
Haze Haze  
Wind Chill: 27°   Ceiling: 300
Heat Index: 33°   Visibility: 1.2mi
Dew Point: 33°   Wind: 6mph
Humidity: 99%   Direction: 130°SE
Pressure: 30.19"   Gusts: NA
Location:  41.28°N, 92.88°W
Report Text: KPEA 201735Z AUTO 13005KT 1 1/4SM BR OVC003 01/00 A3019 RMK AO2 T00050004
Loading
Personal Weather Stations






























Interactive Weather Map New forecast layout! Learn more

10-Day Weather Forecast

Advertisements
Track Severe Weather on mobile